Fortune Bird — VRHQ8 — position and weather

sailwx.info

Track history (hours):
 
Tides and Currents Weather Stations Pressure Air Temp Water Temp Dewpoint Dewpoint Depression Visibility Wind Speed Wind Dir Waves Ship Positions

Fortune Bird

Last reported at 2017-Nov-24 23:29 UTC. Time now 2017-Nov-24 23:56 UTC.
Position N 59°39' E 006°21'.

Length 190 m; draft 8.2 m.

Type: Cargo ship. MMSI: 477963100.

Date/timePositionNaut miles runAvg speedWind from/ knotsBaromVisibWave heightAir tempDewpointWater temp
2017-Nov-24 23:29N 59°39' E 006°21'0 0.0
2017-Nov-24 22:56N 59°39' E 006°21'0 0.0
2017-Nov-24 22:29N 59°39' E 006°21'0 0.0
2017-Nov-24 21:59N 59°39' E 006°21'0 0.0
2017-Nov-24 21:29N 59°39' E 006°21'0 0.0
2017-Nov-24 20:59N 59°39' E 006°21'0 0.0
2017-Nov-24 20:29N 59°39' E 006°21'0 0.0
2017-Nov-24 19:59N 59°39' E 006°21'0 0.0
2017-Nov-24 19:29N 59°39' E 006°21'0 0.0
2017-Nov-24 18:59N 59°39' E 006°21'0 0.0
2017-Nov-24 18:29N 59°39' E 006°21'0 0.0
2017-Nov-24 17:59N 59°39' E 006°21'0 0.0
2017-Nov-24 17:29N 59°39' E 006°21'0 0.0
2017-Nov-24 16:59N 59°39' E 006°21'0 0.0
2017-Nov-24 16:29N 59°39' E 006°21'0 0.0
2017-Nov-24 15:59N 59°39' E 006°21'0 0.0
2017-Nov-24 15:29N 59°39' E 006°21'0 0.0
2017-Nov-24 14:59N 59°39' E 006°21'0 0.0
2017-Nov-24 14:29N 59°39' E 006°21'0 0.0
2017-Nov-24 13:59N 59°39' E 006°21'0 0.0
2017-Nov-24 13:29N 59°39' E 006°21'0 0.0
2017-Nov-24 12:59N 59°39' E 006°21'0 0.0
2017-Nov-24 12:29N 59°39' E 006°21'0 0.1
2017-Nov-24 12:00N 59°39' E 006°21'1 1.1
2017-Nov-24 11:29N 59°38' E 006°21'2 3.1
2017-Nov-24 11:00N 59°37' E 006°19'5 9.8
2017-Nov-24 10:29N 59°32' E 006°16'611.4
2017-Nov-24 10:00N 59°27' E 006°12'4 7.6
2017-Nov-24 09:30N 59°24' E 006°07'3 6.6
2017-Nov-24 09:00N 59°22' E 006°02'3 6.9
2017-Nov-24 08:30N 59°20' E 005°56'611.2
2017-Nov-24 07:59N 59°17' E 005°47'612.1
2017-Nov-24 07:30N 59°13' E 005°39'612.2
2017-Nov-24 06:59N 59°08' E 005°32'510.4
2017-Nov-24 06:30N 59°03' E 005°36'4 8.3
2017-Nov-24 06:00N 59°01' E 005°43'0 0.8
2017-Nov-24 05:28N 59°01' E 005°43'0 0.2
2017-Nov-24 04:58N 59°01' E 005°44'0 0.0
2017-Nov-24 04:28N 59°01' E 005°44'0 0.0
2017-Nov-24 03:58N 59°01' E 005°44'0 0.0
2017-Nov-24 03:28N 59°01' E 005°44'0 0.0
2017-Nov-24 02:58N 59°01' E 005°44'0 0.1
2017-Nov-24 02:28N 59°01' E 005°44'0 0.1
2017-Nov-24 01:58N 59°01' E 005°44'0 0.0
2017-Nov-24 01:28N 59°01' E 005°44'0 0.0
2017-Nov-24 00:58N 59°01' E 005°44'0 0.0
2017-Nov-24 00:28N 59°01' E 005°44'0 0.1
2017-Nov-23 23:58N 59°01' E 005°44'0 0.2
2017-Nov-23 23:28N 59°01' E 005°44'0 0.1
2017-Nov-23 22:58N 59°01' E 005°44'0 0.1
2017-Nov-23 22:28N 59°01' E 005°44'0 0.1
2017-Nov-23 21:58N 59°01' E 005°44'0 0.1
2017-Nov-23 21:28N 59°01' E 005°44'0 0.1
2017-Nov-23 20:58N 59°01' E 005°44'0 0.0
2017-Nov-23 20:28N 59°01' E 005°44'0 0.1
2017-Nov-23 19:58N 59°01' E 005°44'0 0.1
2017-Nov-23 19:28N 59°01' E 005°44'0 0.0
2017-Nov-23 18:58N 59°01' E 005°44'0 0.0
2017-Nov-23 18:28N 59°01' E 005°44'0 0.0
2017-Nov-23 17:58N 59°01' E 005°44'0 0.0
2017-Nov-23 17:28N 59°01' E 005°44'0 0.1
2017-Nov-23 16:58N 59°01' E 005°44'0 0.3
2017-Nov-23 16:28N 59°01' E 005°43'0 0.0
2017-Nov-23 15:58N 59°01' E 005°44'0 0.0
2017-Nov-23 15:28N 59°01' E 005°44'0 0.0
2017-Nov-23 14:58N 59°01' E 005°44'0 0.1
2017-Nov-23 14:28N 59°01' E 005°43'0 0.0
2017-Nov-23 13:58N 59°01' E 005°43'0 0.1
2017-Nov-23 13:28N 59°01' E 005°43'0 0.2
2017-Nov-23 12:58N 59°02' E 005°43'0 0.0
2017-Nov-23 12:28N 59°01' E 005°43'0 0.0
2017-Nov-23 11:58N 59°01' E 005°43'0 0.0
2017-Nov-23 11:28N 59°02' E 005°43'0 0.0
2017-Nov-23 10:58N 59°02' E 005°43'0 0.1
2017-Nov-23 10:28N 59°01' E 005°43'0 0.0
2017-Nov-23 09:58N 59°01' E 005°43'0 0.0
2017-Nov-23 09:28N 59°02' E 005°43'0 0.0
2017-Nov-23 08:58N 59°01' E 005°43'0 0.0
2017-Nov-23 08:28N 59°02' E 005°43'0 0.0
2017-Nov-23 07:58N 59°02' E 005°43'0 0.0
2017-Nov-23 07:28N 59°02' E 005°43'0 0.0
2017-Nov-23 06:58N 59°02' E 005°43'0 0.0
2017-Nov-23 06:28N 59°02' E 005°43'0 0.0
2017-Nov-23 05:58N 59°02' E 005°43'0 0.0
2017-Nov-23 05:28N 59°02' E 005°43'0 0.0
2017-Nov-23 04:58N 59°01' E 005°43'0 0.0
2017-Nov-23 04:28N 59°02' E 005°43'0 0.0
2017-Nov-23 03:58N 59°02' E 005°43'0 0.0
2017-Nov-23 03:28N 59°02' E 005°43'0 0.0
2017-Nov-23 02:58N 59°02' E 005°43'0 0.0
2017-Nov-23 02:28N 59°01' E 005°43'0 0.0
2017-Nov-23 01:58N 59°02' E 005°43'0 0.0
2017-Nov-23 01:28N 59°02' E 005°43'0 0.1
2017-Nov-23 00:58N 59°01' E 005°43'0 0.0
2017-Nov-23 00:28N 59°01' E 005°43'0 0.0
2017-Nov-22 23:58N 59°01' E 005°43'0 0.0
2017-Nov-22 23:28N 59°01' E 005°43'0 0.0
2017-Nov-22 22:58N 59°01' E 005°43'0 0.0
2017-Nov-22 22:28N 59°01' E 005°43'0 0.0
2017-Nov-22 21:58N 59°01' E 005°43'0 0.1
2017-Nov-22 21:28N 59°01' E 005°43'0 0.0
2017-Nov-22 20:58N 59°01' E 005°43'0 0.1
2017-Nov-22 20:28N 59°01' E 005°43'0 0.0
2017-Nov-22 19:58N 59°01' E 005°43'0 0.0
2017-Nov-22 19:28N 59°01' E 005°43'  
2017-Nov-19 20:40N 58°34' W 005°28'211.2
2017-Nov-19 20:29N 58°32' W 005°29'18510.0
2017-Nov-19 01:58N 55°58' W 008°38'12 9.9
2017-Nov-19 00:47N 55°49' W 008°51'5 9.7
2017-Nov-19 00:15N 55°45' W 008°56'3 9.9
2017-Nov-18 23:58N 55°42' W 008°59'6 9.6
2017-Nov-18 23:22N 55°37' W 009°05'4 9.6
2017-Nov-18 22:56N 55°34' W 009°08'5 9.8
2017-Nov-18 22:26N 55°30' W 009°13'60 9.8
2017-Nov-18 16:18N 54°39' W 010°09'410.0
2017-Nov-18 15:55N 54°36' W 010°13'24 9.7
2017-Nov-18 13:23N 54°14' W 010°32'5 9.7
2017-Nov-18 12:54N 54°10' W 010°35'4 9.6
2017-Nov-18 12:28N 54°06' W 010°37'5 9.6
2017-Nov-18 11:58N 54°01' W 010°40'4 9.6
2017-Nov-18 11:31N 53°57' W 010°43'5 9.7
2017-Nov-18 11:00N 53°53' W 010°46'510.0
2017-Nov-18 10:30N 53°48' W 010°49'510.1
2017-Nov-18 09:59N 53°43' W 010°52'6 9.9
2017-Nov-18 09:22N 53°37' W 010°52'610.1
2017-Nov-18 08:45N 53°31' W 010°52'310.0
2017-Nov-18 08:27N 53°28' W 010°52'16 9.9
2017-Nov-18 06:50N 53°12' W 010°52'  
Track history (hours):
 
Tides and Currents Weather Stations Pressure Air Temp Water Temp Dewpoint Dewpoint Depression Visibility Wind Speed Wind Dir Waves Ship Positions

Fortune Bird

Last reported at 2017-Nov-24 23:29 UTC. Time now 2017-Nov-24 23:56 UTC.
Position N 59°39' E 006°21'.

Length 190 m; draft 8.2 m.

Type: Cargo ship. MMSI: 477963100.

Date/timePositionNaut miles runAvg speedWind from/ knotsBaromVisibWave heightAir tempDewpointWater temp
2017-Nov-24 23:29N 59°39' E 006°21'0 0.0
2017-Nov-24 22:56N 59°39' E 006°21'0 0.0
2017-Nov-24 22:29N 59°39' E 006°21'0 0.0
2017-Nov-24 21:59N 59°39' E 006°21'0 0.0
2017-Nov-24 21:29N 59°39' E 006°21'0 0.0
2017-Nov-24 20:59N 59°39' E 006°21'0 0.0
2017-Nov-24 20:29N 59°39' E 006°21'0 0.0
2017-Nov-24 19:59N 59°39' E 006°21'0 0.0
2017-Nov-24 19:29N 59°39' E 006°21'0 0.0
2017-Nov-24 18:59N 59°39' E 006°21'0 0.0
2017-Nov-24 18:29N 59°39' E 006°21'0 0.0
2017-Nov-24 17:59N 59°39' E 006°21'0 0.0
2017-Nov-24 17:29N 59°39' E 006°21'0 0.0
2017-Nov-24 16:59N 59°39' E 006°21'0 0.0
2017-Nov-24 16:29N 59°39' E 006°21'0 0.0
2017-Nov-24 15:59N 59°39' E 006°21'0 0.0
2017-Nov-24 15:29N 59°39' E 006°21'0 0.0
2017-Nov-24 14:59N 59°39' E 006°21'0 0.0
2017-Nov-24 14:29N 59°39' E 006°21'0 0.0
2017-Nov-24 13:59N 59°39' E 006°21'0 0.0
2017-Nov-24 13:29N 59°39' E 006°21'0 0.0
2017-Nov-24 12:59N 59°39' E 006°21'0 0.0
2017-Nov-24 12:29N 59°39' E 006°21'0 0.1
2017-Nov-24 12:00N 59°39' E 006°21'1 1.1
2017-Nov-24 11:29N 59°38' E 006°21'2 3.1
2017-Nov-24 11:00N 59°37' E 006°19'5 9.8
2017-Nov-24 10:29N 59°32' E 006°16'611.4
2017-Nov-24 10:00N 59°27' E 006°12'4 7.6
2017-Nov-24 09:30N 59°24' E 006°07'3 6.6
2017-Nov-24 09:00N 59°22' E 006°02'3 6.9
2017-Nov-24 08:30N 59°20' E 005°56'611.2
2017-Nov-24 07:59N 59°17' E 005°47'612.1
2017-Nov-24 07:30N 59°13' E 005°39'612.2
2017-Nov-24 06:59N 59°08' E 005°32'510.4
2017-Nov-24 06:30N 59°03' E 005°36'4 8.3
2017-Nov-24 06:00N 59°01' E 005°43'0 0.8
2017-Nov-24 05:28N 59°01' E 005°43'0 0.2
2017-Nov-24 04:58N 59°01' E 005°44'0 0.0
2017-Nov-24 04:28N 59°01' E 005°44'0 0.0
2017-Nov-24 03:58N 59°01' E 005°44'0 0.0
2017-Nov-24 03:28N 59°01' E 005°44'0 0.0
2017-Nov-24 02:58N 59°01' E 005°44'0 0.1
2017-Nov-24 02:28N 59°01' E 005°44'0 0.1
2017-Nov-24 01:58N 59°01' E 005°44'0 0.0
2017-Nov-24 01:28N 59°01' E 005°44'0 0.0
2017-Nov-24 00:58N 59°01' E 005°44'0 0.0
2017-Nov-24 00:28N 59°01' E 005°44'0 0.1
2017-Nov-23 23:58N 59°01' E 005°44'0 0.2
2017-Nov-23 23:28N 59°01' E 005°44'0 0.1
2017-Nov-23 22:58N 59°01' E 005°44'0 0.1
2017-Nov-23 22:28N 59°01' E 005°44'0 0.1
2017-Nov-23 21:58N 59°01' E 005°44'0 0.1
2017-Nov-23 21:28N 59°01' E 005°44'0 0.1
2017-Nov-23 20:58N 59°01' E 005°44'0 0.0
2017-Nov-23 20:28N 59°01' E 005°44'0 0.1
2017-Nov-23 19:58N 59°01' E 005°44'0 0.1
2017-Nov-23 19:28N 59°01' E 005°44'0 0.0
2017-Nov-23 18:58N 59°01' E 005°44'0 0.0
2017-Nov-23 18:28N 59°01' E 005°44'0 0.0
2017-Nov-23 17:58N 59°01' E 005°44'0 0.0
2017-Nov-23 17:28N 59°01' E 005°44'0 0.1
2017-Nov-23 16:58N 59°01' E 005°44'0 0.3
2017-Nov-23 16:28N 59°01' E 005°43'0 0.0
2017-Nov-23 15:58N 59°01' E 005°44'0 0.0
2017-Nov-23 15:28N 59°01' E 005°44'0 0.0
2017-Nov-23 14:58N 59°01' E 005°44'0 0.1
2017-Nov-23 14:28N 59°01' E 005°43'0 0.0
2017-Nov-23 13:58N 59°01' E 005°43'0 0.1
2017-Nov-23 13:28N 59°01' E 005°43'0 0.2
2017-Nov-23 12:58N 59°02' E 005°43'0 0.0
2017-Nov-23 12:28N 59°01' E 005°43'0 0.0
2017-Nov-23 11:58N 59°01' E 005°43'0 0.0
2017-Nov-23 11:28N 59°02' E 005°43'0 0.0
2017-Nov-23 10:58N 59°02' E 005°43'0 0.1
2017-Nov-23 10:28N 59°01' E 005°43'0 0.0
2017-Nov-23 09:58N 59°01' E 005°43'0 0.0
2017-Nov-23 09:28N 59°02' E 005°43'0 0.0
2017-Nov-23 08:58N 59°01' E 005°43'0 0.0
2017-Nov-23 08:28N 59°02' E 005°43'0 0.0
2017-Nov-23 07:58N 59°02' E 005°43'0 0.0
2017-Nov-23 07:28N 59°02' E 005°43'0 0.0
2017-Nov-23 06:58N 59°02' E 005°43'0 0.0
2017-Nov-23 06:28N 59°02' E 005°43'0 0.0
2017-Nov-23 05:58N 59°02' E 005°43'0 0.0
2017-Nov-23 05:28N 59°02' E 005°43'0 0.0
2017-Nov-23 04:58N 59°01' E 005°43'0 0.0
2017-Nov-23 04:28N 59°02' E 005°43'0 0.0
2017-Nov-23 03:58N 59°02' E 005°43'0 0.0
2017-Nov-23 03:28N 59°02' E 005°43'0 0.0
2017-Nov-23 02:58N 59°02' E 005°43'0 0.0
2017-Nov-23 02:28N 59°01' E 005°43'0 0.0
2017-Nov-23 01:58N 59°02' E 005°43'0 0.0
2017-Nov-23 01:28N 59°02' E 005°43'0 0.1
2017-Nov-23 00:58N 59°01' E 005°43'0 0.0
2017-Nov-23 00:28N 59°01' E 005°43'0 0.0
2017-Nov-22 23:58N 59°01' E 005°43'0 0.0
2017-Nov-22 23:28N 59°01' E 005°43'0 0.0
2017-Nov-22 22:58N 59°01' E 005°43'0 0.0
2017-Nov-22 22:28N 59°01' E 005°43'0 0.0
2017-Nov-22 21:58N 59°01' E 005°43'0 0.1
2017-Nov-22 21:28N 59°01' E 005°43'0 0.0
2017-Nov-22 20:58N 59°01' E 005°43'0 0.1
2017-Nov-22 20:28N 59°01' E 005°43'0 0.0
2017-Nov-22 19:58N 59°01' E 005°43'0 0.0
2017-Nov-22 19:28N 59°01' E 005°43'  
2017-Nov-19 20:40N 58°34' W 005°28'211.2
2017-Nov-19 20:29N 58°32' W 005°29'18510.0
2017-Nov-19 01:58N 55°58' W 008°38'12 9.9
2017-Nov-19 00:47N 55°49' W 008°51'5 9.7
2017-Nov-19 00:15N 55°45' W 008°56'3 9.9
2017-Nov-18 23:58N 55°42' W 008°59'6 9.6
2017-Nov-18 23:22N 55°37' W 009°05'4 9.6
2017-Nov-18 22:56N 55°34' W 009°08'5 9.8
2017-Nov-18 22:26N 55°30' W 009°13'60 9.8
2017-Nov-18 16:18N 54°39' W 010°09'410.0
2017-Nov-18 15:55N 54°36' W 010°13'24 9.7
2017-Nov-18 13:23N 54°14' W 010°32'5 9.7
2017-Nov-18 12:54N 54°10' W 010°35'4 9.6
2017-Nov-18 12:28N 54°06' W 010°37'5 9.6
2017-Nov-18 11:58N 54°01' W 010°40'4 9.6
2017-Nov-18 11:31N 53°57' W 010°43'5 9.7
2017-Nov-18 11:00N 53°53' W 010°46'510.0
2017-Nov-18 10:30N 53°48' W 010°49'510.1
2017-Nov-18 09:59N 53°43' W 010°52'6 9.9
2017-Nov-18 09:22N 53°37' W 010°52'610.1
2017-Nov-18 08:45N 53°31' W 010°52'310.0
2017-Nov-18 08:27N 53°28' W 010°52'16 9.9
2017-Nov-18 06:50N 53°12' W 010°52'  

Dump ship's entire track history